sensor_id;sensor_type;location;lat;lon;timestamp;temperature;humidity
26537;DHT22;14204;51.262;5.488;2022-11-13T00:01:59;9.40;99.90
26537;DHT22;14204;51.262;5.488;2022-11-13T00:04:25;9.30;99.90
26537;DHT22;14204;51.262;5.488;2022-11-13T00:06:50;9.30;99.90
26537;DHT22;14204;51.262;5.488;2022-11-13T00:09:16;9.30;99.90
26537;DHT22;14204;51.262;5.488;2022-11-13T00:11:42;9.40;99.90
26537;DHT22;14204;51.262;5.488;2022-11-13T00:14:07;9.40;99.90
26537;DHT22;14204;51.262;5.488;2022-11-13T00:16:33;9.40;99.90
26537;DHT22;14204;51.262;5.488;2022-11-13T00:18:58;9.40;99.90
26537;DHT22;14204;51.262;5.488;2022-11-13T00:21:24;9.40;99.90
26537;DHT22;14204;51.262;5.488;2022-11-13T00:23:52;9.40;99.90
26537;DHT22;14204;51.262;5.488;2022-11-13T00:26:21;9.30;99.90
26537;DHT22;14204;51.262;5.488;2022-11-13T00:28:55;9.40;99.90
26537;DHT22;14204;51.262;5.488;2022-11-13T00:31:21;9.40;99.90
26537;DHT22;14204;51.262;5.488;2022-11-13T00:33:47;9.40;99.90
26537;DHT22;14204;51.262;5.488;2022-11-13T00:36:18;9.30;99.90
26537;DHT22;14204;51.262;5.488;2022-11-13T00:38:44;9.30;99.90
26537;DHT22;14204;51.262;5.488;2022-11-13T00:41:10;9.30;99.90
26537;DHT22;14204;51.262;5.488;2022-11-13T00:43:36;9.40;99.90
26537;DHT22;14204;51.262;5.488;2022-11-13T00:46:02;9.30;99.90
26537;DHT22;14204;51.262;5.488;2022-11-13T00:48:28;9.30;99.90
26537;DHT22;14204;51.262;5.488;2022-11-13T00:50:54;9.30;99.90
26537;DHT22;14204;51.262;5.488;2022-11-13T00:53:20;9.30;99.90
26537;DHT22;14204;51.262;5.488;2022-11-13T00:55:45;9.20;99.90
26537;DHT22;14204;51.262;5.488;2022-11-13T00:58:12;9.10;99.90
26537;DHT22;14204;51.262;5.488;2022-11-13T01:00:38;9.10;99.90
26537;DHT22;14204;51.262;5.488;2022-11-13T01:03:04;9.10;99.90
26537;DHT22;14204;51.262;5.488;2022-11-13T01:05:30;9.10;99.90
26537;DHT22;14204;51.262;5.488;2022-11-13T01:07:56;9.10;99.90
26537;DHT22;14204;51.262;5.488;2022-11-13T01:10:23;9.00;99.90
26537;DHT22;14204;51.262;5.488;2022-11-13T01:12:48;9.00;99.90
26537;DHT22;14204;51.262;5.488;2022-11-13T01:15:14;9.00;99.90
26537;DHT22;14204;51.262;5.488;2022-11-13T01:17:40;9.00;99.90
26537;DHT22;14204;51.262;5.488;2022-11-13T01:20:06;9.00;99.90
26537;DHT22;14204;51.262;5.488;2022-11-13T01:22:32;9.00;99.90
26537;DHT22;14204;51.262;5.488;2022-11-13T01:24:57;9.10;99.90
26537;DHT22;14204;51.262;5.488;2022-11-13T01:27:23;9.00;99.90
26537;DHT22;14204;51.262;5.488;2022-11-13T01:29:49;9.00;99.90
26537;DHT22;14204;51.262;5.488;2022-11-13T01:32:14;9.00;99.90
26537;DHT22;14204;51.262;5.488;2022-11-13T01:34:40;9.00;99.90
26537;DHT22;14204;51.262;5.488;2022-11-13T01:37:05;8.90;99.90
26537;DHT22;14204;51.262;5.488;2022-11-13T01:39:31;8.90;99.90
26537;DHT22;14204;51.262;5.488;2022-11-13T01:41:57;8.80;99.90
26537;DHT22;14204;51.262;5.488;2022-11-13T01:44:22;8.80;99.90
26537;DHT22;14204;51.262;5.488;2022-11-13T01:46:53;8.80;99.90
26537;DHT22;14204;51.262;5.488;2022-11-13T01:49:36;8.80;99.90
26537;DHT22;14204;51.262;5.488;2022-11-13T01:52:12;8.70;99.90
26537;DHT22;14204;51.262;5.488;2022-11-13T01:54:49;8.70;99.90
26537;DHT22;14204;51.262;5.488;2022-11-13T01:57:15;8.60;99.90
26537;DHT22;14204;51.262;5.488;2022-11-13T01:59:55;8.60;99.90
26537;DHT22;14204;51.262;5.488;2022-11-13T02:02:22;8.60;99.90
26537;DHT22;14204;51.262;5.488;2022-11-13T02:04:48;8.60;99.90
26537;DHT22;14204;51.262;5.488;2022-11-13T02:07:15;8.60;99.90
26537;DHT22;14204;51.262;5.488;2022-11-13T02:09:44;8.50;99.90
26537;DHT22;14204;51.262;5.488;2022-11-13T02:12:13;8.50;99.90
26537;DHT22;14204;51.262;5.488;2022-11-13T02:14:42;8.50;99.90
26537;DHT22;14204;51.262;5.488;2022-11-13T02:17:12;8.50;99.90
26537;DHT22;14204;51.262;5.488;2022-11-13T02:19:43;8.50;99.90
26537;DHT22;14204;51.262;5.488;2022-11-13T02:22:37;8.50;99.90
26537;DHT22;14204;51.262;5.488;2022-11-13T02:25:06;8.50;99.90
26537;DHT22;14204;51.262;5.488;2022-11-13T02:30:28;8.50;99.90
26537;DHT22;14204;51.262;5.488;2022-11-13T02:32:56;8.50;99.90
26537;DHT22;14204;51.262;5.488;2022-11-13T02:35:32;8.50;99.90
26537;DHT22;14204;51.262;5.488;2022-11-13T02:38:01;8.50;99.90
26537;DHT22;14204;51.262;5.488;2022-11-13T02:40:28;8.30;99.90
26537;DHT22;14204;51.262;5.488;2022-11-13T02:42:54;8.30;99.90
26537;DHT22;14204;51.262;5.488;2022-11-13T02:45:20;8.30;99.90
26537;DHT22;14204;51.262;5.488;2022-11-13T02:47:46;8.30;99.90
26537;DHT22;14204;51.262;5.488;2022-11-13T02:50:12;8.30;99.90
26537;DHT22;14204;51.262;5.488;2022-11-13T02:52:37;8.30;99.90
26537;DHT22;14204;51.262;5.488;2022-11-13T02:55:04;8.30;99.90
26537;DHT22;14204;51.262;5.488;2022-11-13T02:57:30;8.30;99.90
26537;DHT22;14204;51.262;5.488;2022-11-13T02:59:55;8.30;99.90
26537;DHT22;14204;51.262;5.488;2022-11-13T03:02:21;8.20;99.90
26537;DHT22;14204;51.262;5.488;2022-11-13T03:04:46;8.20;99.90
26537;DHT22;14204;51.262;5.488;2022-11-13T03:07:12;8.20;99.90
26537;DHT22;14204;51.262;5.488;2022-11-13T03:09:39;8.20;99.90
26537;DHT22;14204;51.262;5.488;2022-11-13T03:12:05;8.20;99.90
26537;DHT22;14204;51.262;5.488;2022-11-13T03:14:31;8.20;99.90
26537;DHT22;14204;51.262;5.488;2022-11-13T03:16:57;8.20;99.90
26537;DHT22;14204;51.262;5.488;2022-11-13T03:19:23;8.30;99.90
26537;DHT22;14204;51.262;5.488;2022-11-13T03:21:48;8.20;99.90
26537;DHT22;14204;51.262;5.488;2022-11-13T03:24:14;8.30;99.90
26537;DHT22;14204;51.262;5.488;2022-11-13T03:26:40;8.30;99.90
26537;DHT22;14204;51.262;5.488;2022-11-13T03:29:05;8.30;99.90
26537;DHT22;14204;51.262;5.488;2022-11-13T03:31:31;8.20;99.90
26537;DHT22;14204;51.262;5.488;2022-11-13T03:33:57;8.10;99.90
26537;DHT22;14204;51.262;5.488;2022-11-13T03:36:23;8.20;99.90
26537;DHT22;14204;51.262;5.488;2022-11-13T03:38:49;8.20;99.90
26537;DHT22;14204;51.262;5.488;2022-11-13T03:41:14;8.20;99.90
26537;DHT22;14204;51.262;5.488;2022-11-13T03:43:41;8.20;99.90
26537;DHT22;14204;51.262;5.488;2022-11-13T03:46:06;8.20;99.90
26537;DHT22;14204;51.262;5.488;2022-11-13T03:48:32;8.20;99.90
26537;DHT22;14204;51.262;5.488;2022-11-13T03:50:58;8.20;99.90
26537;DHT22;14204;51.262;5.488;2022-11-13T03:53:24;8.30;99.90
26537;DHT22;14204;51.262;5.488;2022-11-13T03:55:50;8.30;99.90
26537;DHT22;14204;51.262;5.488;2022-11-13T03:58:16;8.30;99.90
26537;DHT22;14204;51.262;5.488;2022-11-13T04:00:42;8.30;99.90
26537;DHT22;14204;51.262;5.488;2022-11-13T04:03:08;8.20;99.90
26537;DHT22;14204;51.262;5.488;2022-11-13T04:05:34;8.20;99.90
26537;DHT22;14204;51.262;5.488;2022-11-13T04:08:00;8.20;99.90
26537;DHT22;14204;51.262;5.488;2022-11-13T04:10:26;8.20;99.90
26537;DHT22;14204;51.262;5.488;2022-11-13T04:12:51;8.20;99.90
26537;DHT22;14204;51.262;5.488;2022-11-13T04:15:17;8.20;99.90
26537;DHT22;14204;51.262;5.488;2022-11-13T04:17:43;8.10;99.90
26537;DHT22;14204;51.262;5.488;2022-11-13T04:20:09;8.10;99.90
26537;DHT22;14204;51.262;5.488;2022-11-13T04:22:35;8.00;99.90
26537;DHT22;14204;51.262;5.488;2022-11-13T04:25:01;8.10;99.90
26537;DHT22;14204;51.262;5.488;2022-11-13T04:27:26;8.10;99.90
26537;DHT22;14204;51.262;5.488;2022-11-13T04:29:52;8.00;99.90
26537;DHT22;14204;51.262;5.488;2022-11-13T04:32:18;8.00;99.90
26537;DHT22;14204;51.262;5.488;2022-11-13T04:34:43;8.00;99.90
26537;DHT22;14204;51.262;5.488;2022-11-13T04:37:09;8.10;99.90
26537;DHT22;14204;51.262;5.488;2022-11-13T04:39:34;8.10;99.90
26537;DHT22;14204;51.262;5.488;2022-11-13T04:42:00;8.10;99.90
26537;DHT22;14204;51.262;5.488;2022-11-13T04:44:44;8.10;99.90
26537;DHT22;14204;51.262;5.488;2022-11-13T04:47:09;8.10;99.90
26537;DHT22;14204;51.262;5.488;2022-11-13T04:49:35;8.10;99.90
26537;DHT22;14204;51.262;5.488;2022-11-13T04:52:01;8.00;99.90
26537;DHT22;14204;51.262;5.488;2022-11-13T04:54:26;8.00;99.90
26537;DHT22;14204;51.262;5.488;2022-11-13T04:56:52;8.00;99.90
26537;DHT22;14204;51.262;5.488;2022-11-13T04:59:17;7.90;99.90
26537;DHT22;14204;51.262;5.488;2022-11-13T05:01:43;7.90;99.90
26537;DHT22;14204;51.262;5.488;2022-11-13T05:04:13;7.90;99.90
26537;DHT22;14204;51.262;5.488;2022-11-13T05:06:39;7.90;99.90
26537;DHT22;14204;51.262;5.488;2022-11-13T05:09:05;7.90;99.90
26537;DHT22;14204;51.262;5.488;2022-11-13T05:11:30;7.90;99.90
26537;DHT22;14204;51.262;5.488;2022-11-13T05:13:56;7.90;99.90
26537;DHT22;14204;51.262;5.488;2022-11-13T05:16:21;7.90;99.90
26537;DHT22;14204;51.262;5.488;2022-11-13T05:18:47;7.80;99.90
26537;DHT22;14204;51.262;5.488;2022-11-13T05:21:13;7.80;99.90
26537;DHT22;14204;51.262;5.488;2022-11-13T05:23:38;7.80;99.90
26537;DHT22;14204;51.262;5.488;2022-11-13T05:26:09;7.90;99.90
26537;DHT22;14204;51.262;5.488;2022-11-13T05:28:36;7.90;99.90
26537;DHT22;14204;51.262;5.488;2022-11-13T05:31:10;7.90;99.90
26537;DHT22;14204;51.262;5.488;2022-11-13T05:33:36;7.90;99.90
26537;DHT22;14204;51.262;5.488;2022-11-13T05:36:08;7.90;99.90
26537;DHT22;14204;51.262;5.488;2022-11-13T05:38:35;7.80;99.90
26537;DHT22;14204;51.262;5.488;2022-11-13T05:43:27;7.70;99.90
26537;DHT22;14204;51.262;5.488;2022-11-13T05:46:08;7.70;99.90
26537;DHT22;14204;51.262;5.488;2022-11-13T05:48:34;7.70;99.90
26537;DHT22;14204;51.262;5.488;2022-11-13T05:53:36;7.60;99.90
26537;DHT22;14204;51.262;5.488;2022-11-13T05:56:08;7.60;99.90
26537;DHT22;14204;51.262;5.488;2022-11-13T05:58:34;7.60;99.90
26537;DHT22;14204;51.262;5.488;2022-11-13T06:03:33;7.60;99.90
26537;DHT22;14204;51.262;5.488;2022-11-13T06:05:59;7.60;99.90
26537;DHT22;14204;51.262;5.488;2022-11-13T06:08:25;7.60;99.90
26537;DHT22;14204;51.262;5.488;2022-11-13T06:10:51;7.60;99.90
26537;DHT22;14204;51.262;5.488;2022-11-13T06:13:17;7.60;99.90
26537;DHT22;14204;51.262;5.488;2022-11-13T06:15:42;7.60;99.90
26537;DHT22;14204;51.262;5.488;2022-11-13T06:18:08;7.70;99.90
26537;DHT22;14204;51.262;5.488;2022-11-13T06:20:35;7.60;99.90
26537;DHT22;14204;51.262;5.488;2022-11-13T06:23:01;7.60;99.90
26537;DHT22;14204;51.262;5.488;2022-11-13T06:25:27;7.60;99.90
26537;DHT22;14204;51.262;5.488;2022-11-13T06:27:53;7.60;99.90
26537;DHT22;14204;51.262;5.488;2022-11-13T06:30:19;7.60;99.90
26537;DHT22;14204;51.262;5.488;2022-11-13T06:32:51;7.60;99.90
26537;DHT22;14204;51.262;5.488;2022-11-13T06:35:17;7.60;99.90
26537;DHT22;14204;51.262;5.488;2022-11-13T06:37:43;7.60;99.90
26537;DHT22;14204;51.262;5.488;2022-11-13T06:40:09;7.50;99.90
26537;DHT22;14204;51.262;5.488;2022-11-13T06:42:34;7.30;99.90
26537;DHT22;14204;51.262;5.488;2022-11-13T06:45:00;7.00;99.90
26537;DHT22;14204;51.262;5.488;2022-11-13T06:47:26;7.00;99.90
26537;DHT22;14204;51.262;5.488;2022-11-13T06:49:52;6.90;99.90
26537;DHT22;14204;51.262;5.488;2022-11-13T06:52:18;6.90;99.90
26537;DHT22;14204;51.262;5.488;2022-11-13T06:54:43;6.80;99.90
26537;DHT22;14204;51.262;5.488;2022-11-13T06:57:09;6.70;99.90
26537;DHT22;14204;51.262;5.488;2022-11-13T06:59:35;6.70;99.90
26537;DHT22;14204;51.262;5.488;2022-11-13T07:02:01;6.80;99.90
26537;DHT22;14204;51.262;5.488;2022-11-13T07:04:26;6.80;99.90
26537;DHT22;14204;51.262;5.488;2022-11-13T07:06:52;6.90;99.90
26537;DHT22;14204;51.262;5.488;2022-11-13T07:09:18;7.00;99.90
26537;DHT22;14204;51.262;5.488;2022-11-13T07:11:43;7.00;99.90
26537;DHT22;14204;51.262;5.488;2022-11-13T07:14:12;7.10;99.90
26537;DHT22;14204;51.262;5.488;2022-11-13T07:16:37;7.10;99.90
26537;DHT22;14204;51.262;5.488;2022-11-13T07:19:03;7.00;99.90
26537;DHT22;14204;51.262;5.488;2022-11-13T07:21:29;7.00;99.90
26537;DHT22;14204;51.262;5.488;2022-11-13T07:23:54;7.00;99.90
26537;DHT22;14204;51.262;5.488;2022-11-13T07:26:20;7.00;99.90
26537;DHT22;14204;51.262;5.488;2022-11-13T07:28:47;7.00;99.90
26537;DHT22;14204;51.262;5.488;2022-11-13T07:31:14;7.00;99.90
26537;DHT22;14204;51.262;5.488;2022-11-13T07:33:40;7.00;99.90
26537;DHT22;14204;51.262;5.488;2022-11-13T07:36:06;7.00;99.90
26537;DHT22;14204;51.262;5.488;2022-11-13T07:38:32;7.10;99.90
26537;DHT22;14204;51.262;5.488;2022-11-13T07:40:58;7.10;99.90
26537;DHT22;14204;51.262;5.488;2022-11-13T07:43:24;7.10;99.90
26537;DHT22;14204;51.262;5.488;2022-11-13T07:45:49;7.00;99.90
26537;DHT22;14204;51.262;5.488;2022-11-13T07:48:19;7.10;99.90
26537;DHT22;14204;51.262;5.488;2022-11-13T07:50:45;7.10;99.90
26537;DHT22;14204;51.262;5.488;2022-11-13T07:53:11;7.10;99.90
26537;DHT22;14204;51.262;5.488;2022-11-13T07:55:37;7.10;99.90
26537;DHT22;14204;51.262;5.488;2022-11-13T07:58:04;7.10;99.90
26537;DHT22;14204;51.262;5.488;2022-11-13T08:00:31;7.20;99.90
26537;DHT22;14204;51.262;5.488;2022-11-13T08:03:02;7.20;99.90
26537;DHT22;14204;51.262;5.488;2022-11-13T08:05:29;7.20;99.90
26537;DHT22;14204;51.262;5.488;2022-11-13T08:07:55;7.30;99.90
26537;DHT22;14204;51.262;5.488;2022-11-13T08:10:20;7.30;99.90
26537;DHT22;14204;51.262;5.488;2022-11-13T08:12:47;7.30;99.90
26537;DHT22;14204;51.262;5.488;2022-11-13T08:15:13;7.40;99.90
26537;DHT22;14204;51.262;5.488;2022-11-13T08:17:38;7.30;99.90
26537;DHT22;14204;51.262;5.488;2022-11-13T08:20:05;7.40;99.90
26537;DHT22;14204;51.262;5.488;2022-11-13T08:22:31;7.40;99.90
26537;DHT22;14204;51.262;5.488;2022-11-13T08:24:58;7.40;99.90
26537;DHT22;14204;51.262;5.488;2022-11-13T08:27:24;7.40;99.90
26537;DHT22;14204;51.262;5.488;2022-11-13T08:29:50;7.40;99.90
26537;DHT22;14204;51.262;5.488;2022-11-13T08:32:17;7.50;99.90
26537;DHT22;14204;51.262;5.488;2022-11-13T08:34:44;7.60;99.90
26537;DHT22;14204;51.262;5.488;2022-11-13T08:37:09;7.60;99.90
26537;DHT22;14204;51.262;5.488;2022-11-13T08:39:35;7.70;99.90
26537;DHT22;14204;51.262;5.488;2022-11-13T08:42:02;7.80;99.90
26537;DHT22;14204;51.262;5.488;2022-11-13T08:44:27;7.80;99.90
26537;DHT22;14204;51.262;5.488;2022-11-13T08:46:53;7.80;99.90
26537;DHT22;14204;51.262;5.488;2022-11-13T08:49:19;7.80;99.90
26537;DHT22;14204;51.262;5.488;2022-11-13T08:51:44;7.80;99.90
26537;DHT22;14204;51.262;5.488;2022-11-13T08:54:10;7.80;99.90
26537;DHT22;14204;51.262;5.488;2022-11-13T08:56:36;7.80;99.90
26537;DHT22;14204;51.262;5.488;2022-11-13T08:59:01;7.90;99.90
26537;DHT22;14204;51.262;5.488;2022-11-13T09:01:27;7.90;99.90
26537;DHT22;14204;51.262;5.488;2022-11-13T09:03:53;7.90;99.90
26537;DHT22;14204;51.262;5.488;2022-11-13T09:06:18;8.00;99.90
26537;DHT22;14204;51.262;5.488;2022-11-13T09:08:44;8.10;99.90
26537;DHT22;14204;51.262;5.488;2022-11-13T09:11:09;8.20;99.90
26537;DHT22;14204;51.262;5.488;2022-11-13T09:13:36;8.20;99.90
26537;DHT22;14204;51.262;5.488;2022-11-13T09:16:02;8.30;99.90
26537;DHT22;14204;51.262;5.488;2022-11-13T09:18:28;8.50;99.90
26537;DHT22;14204;51.262;5.488;2022-11-13T09:20:55;8.60;99.90
26537;DHT22;14204;51.262;5.488;2022-11-13T09:23:25;8.70;99.90
26537;DHT22;14204;51.262;5.488;2022-11-13T09:25:50;8.90;99.90
26537;DHT22;14204;51.262;5.488;2022-11-13T09:28:16;9.00;99.90
26537;DHT22;14204;51.262;5.488;2022-11-13T09:30:41;9.10;99.90
26537;DHT22;14204;51.262;5.488;2022-11-13T09:33:09;9.10;99.90
26537;DHT22;14204;51.262;5.488;2022-11-13T09:35:34;9.30;99.90
26537;DHT22;14204;51.262;5.488;2022-11-13T09:38:05;9.50;99.90
26537;DHT22;14204;51.262;5.488;2022-11-13T09:40:47;9.50;99.90
26537;DHT22;14204;51.262;5.488;2022-11-13T09:43:32;9.60;99.90
26537;DHT22;14204;51.262;5.488;2022-11-13T09:46:06;9.70;99.90
26537;DHT22;14204;51.262;5.488;2022-11-13T09:48:37;9.80;99.90
26537;DHT22;14204;51.262;5.488;2022-11-13T09:51:34;9.90;99.90
26537;DHT22;14204;51.262;5.488;2022-11-13T09:54:05;10.10;99.90
26537;DHT22;14204;51.262;5.488;2022-11-13T10:02:14;10.50;99.90
26537;DHT22;14204;51.262;5.488;2022-11-13T10:10:33;10.80;99.90
26537;DHT22;14204;51.262;5.488;2022-11-13T10:13:01;10.90;99.90
26537;DHT22;14204;51.262;5.488;2022-11-13T10:15:27;11.00;99.90
26537;DHT22;14204;51.262;5.488;2022-11-13T10:21:21;11.20;99.90
26537;DHT22;14204;51.262;5.488;2022-11-13T10:23:37;11.30;99.90
26537;DHT22;14204;51.262;5.488;2022-11-13T10:26:15;11.40;99.90
26537;DHT22;14204;51.262;5.488;2022-11-13T10:28:41;11.40;99.90
26537;DHT22;14204;51.262;5.488;2022-11-13T10:31:11;11.50;99.90
26537;DHT22;14204;51.262;5.488;2022-11-13T10:33:36;11.50;99.90
26537;DHT22;14204;51.262;5.488;2022-11-13T10:36:28;11.60;99.90
26537;DHT22;14204;51.262;5.488;2022-11-13T10:39:04;11.60;99.90
26537;DHT22;14204;51.262;5.488;2022-11-13T10:41:30;11.70;99.90
26537;DHT22;14204;51.262;5.488;2022-11-13T10:44:16;11.60;99.90
26537;DHT22;14204;51.262;5.488;2022-11-13T10:46:42;11.70;99.90
26537;DHT22;14204;51.262;5.488;2022-11-13T10:49:16;11.80;99.90
26537;DHT22;14204;51.262;5.488;2022-11-13T10:51:42;11.90;99.90
26537;DHT22;14204;51.262;5.488;2022-11-13T10:54:24;11.90;99.90
26537;DHT22;14204;51.262;5.488;2022-11-13T10:57:04;11.90;99.90
26537;DHT22;14204;51.262;5.488;2022-11-13T10:59:39;11.90;99.90
26537;DHT22;14204;51.262;5.488;2022-11-13T11:02:20;11.90;99.90
26537;DHT22;14204;51.262;5.488;2022-11-13T11:04:46;11.90;99.90
26537;DHT22;14204;51.262;5.488;2022-11-13T11:07:17;12.00;99.90
26537;DHT22;14204;51.262;5.488;2022-11-13T11:09:44;12.10;99.90
26537;DHT22;14204;51.262;5.488;2022-11-13T11:12:16;12.10;99.90
26537;DHT22;14204;51.262;5.488;2022-11-13T11:17:25;12.20;99.90
26537;DHT22;14204;51.262;5.488;2022-11-13T11:19:54;12.20;99.90
26537;DHT22;14204;51.262;5.488;2022-11-13T11:22:23;12.30;99.90
26537;DHT22;14204;51.262;5.488;2022-11-13T11:25:01;12.30;99.90
26537;DHT22;14204;51.262;5.488;2022-11-13T11:27:37;12.40;99.90
26537;DHT22;14204;51.262;5.488;2022-11-13T11:30:14;12.40;99.90
26537;DHT22;14204;51.262;5.488;2022-11-13T11:33:28;12.40;99.90
26537;DHT22;14204;51.262;5.488;2022-11-13T11:35:44;12.40;99.90
26537;DHT22;14204;51.262;5.488;2022-11-13T11:38:34;12.50;99.90
26537;DHT22;14204;51.262;5.488;2022-11-13T11:41:11;12.50;99.90
26537;DHT22;14204;51.262;5.488;2022-11-13T11:43:47;12.50;99.90
26537;DHT22;14204;51.262;5.488;2022-11-13T11:46:23;12.60;99.90
26537;DHT22;14204;51.262;5.488;2022-11-13T11:48:49;12.70;99.90
26537;DHT22;14204;51.262;5.488;2022-11-13T11:56:44;12.70;99.90
26537;DHT22;14204;51.262;5.488;2022-11-13T12:30:03;13.30;99.90
26537;DHT22;14204;51.262;5.488;2022-11-13T12:32:50;13.30;99.90
26537;DHT22;14204;51.262;5.488;2022-11-13T12:35:19;13.30;99.90
26537;DHT22;14204;51.262;5.488;2022-11-13T12:38:07;13.30;99.90
26537;DHT22;14204;51.262;5.488;2022-11-13T12:41:05;13.30;99.90
26537;DHT22;14204;51.262;5.488;2022-11-13T12:44:05;13.30;99.90
26537;DHT22;14204;51.262;5.488;2022-11-13T12:46:37;13.40;99.90
26537;DHT22;14204;51.262;5.488;2022-11-13T12:51:54;13.50;99.90
26537;DHT22;14204;51.262;5.488;2022-11-13T12:54:32;13.60;99.90
26537;DHT22;14204;51.262;5.488;2022-11-13T12:59:40;13.50;99.90
26537;DHT22;14204;51.262;5.488;2022-11-13T13:10:26;13.60;99.90
26537;DHT22;14204;51.262;5.488;2022-11-13T13:13:42;13.60;99.90
26537;DHT22;14204;51.262;5.488;2022-11-13T13:16:00;13.60;99.90
26537;DHT22;14204;51.262;5.488;2022-11-13T13:18:37;13.70;99.90
26537;DHT22;14204;51.262;5.488;2022-11-13T13:21:14;13.60;99.90
26537;DHT22;14204;51.262;5.488;2022-11-13T13:23:43;13.60;99.90
26537;DHT22;14204;51.262;5.488;2022-11-13T13:26:18;13.60;99.90
26537;DHT22;14204;51.262;5.488;2022-11-13T13:28:50;13.60;99.90
26537;DHT22;14204;51.262;5.488;2022-11-13T13:34:34;13.60;99.90
26537;DHT22;14204;51.262;5.488;2022-11-13T13:48:19;13.60;99.90
26537;DHT22;14204;51.262;5.488;2022-11-13T13:50:47;13.70;99.90
26537;DHT22;14204;51.262;5.488;2022-11-13T13:53:28;13.70;99.90
26537;DHT22;14204;51.262;5.488;2022-11-13T13:55:55;13.70;99.90
26537;DHT22;14204;51.262;5.488;2022-11-13T13:58:29;13.70;99.90
26537;DHT22;14204;51.262;5.488;2022-11-13T14:01:00;13.70;99.90
26537;DHT22;14204;51.262;5.488;2022-11-13T14:03:26;13.70;99.90
26537;DHT22;14204;51.262;5.488;2022-11-13T14:05:54;13.70;99.90
26537;DHT22;14204;51.262;5.488;2022-11-13T14:08:25;13.70;99.90
26537;DHT22;14204;51.262;5.488;2022-11-13T14:10:51;13.70;99.90
26537;DHT22;14204;51.262;5.488;2022-11-13T14:13:27;13.70;99.90
26537;DHT22;14204;51.262;5.488;2022-11-13T14:16:04;13.70;99.90
26537;DHT22;14204;51.262;5.488;2022-11-13T14:18:30;13.70;99.90
26537;DHT22;14204;51.262;5.488;2022-11-13T14:20:58;13.70;99.90
26537;DHT22;14204;51.262;5.488;2022-11-13T14:23:28;13.70;99.90
26537;DHT22;14204;51.262;5.488;2022-11-13T14:25:55;13.70;99.90
26537;DHT22;14204;51.262;5.488;2022-11-13T14:28:23;13.70;99.90
26537;DHT22;14204;51.262;5.488;2022-11-13T14:31:04;13.70;99.90
26537;DHT22;14204;51.262;5.488;2022-11-13T14:33:36;13.70;99.90
26537;DHT22;14204;51.262;5.488;2022-11-13T14:36:03;13.70;99.90
26537;DHT22;14204;51.262;5.488;2022-11-13T14:38:34;13.70;99.90
26537;DHT22;14204;51.262;5.488;2022-11-13T14:41:02;13.60;99.90
26537;DHT22;14204;51.262;5.488;2022-11-13T14:43:30;13.60;99.90
26537;DHT22;14204;51.262;5.488;2022-11-13T14:45:58;13.50;99.90
26537;DHT22;14204;51.262;5.488;2022-11-13T14:48:29;13.50;99.90
26537;DHT22;14204;51.262;5.488;2022-11-13T14:50:58;13.40;99.90
26537;DHT22;14204;51.262;5.488;2022-11-13T14:53:32;13.50;99.90
26537;DHT22;14204;51.262;5.488;2022-11-13T14:56:00;13.50;99.90
26537;DHT22;14204;51.262;5.488;2022-11-13T14:58:38;13.40;99.90
26537;DHT22;14204;51.262;5.488;2022-11-13T15:01:18;13.40;99.90
26537;DHT22;14204;51.262;5.488;2022-11-13T15:03:46;13.40;99.90
26537;DHT22;14204;51.262;5.488;2022-11-13T15:06:18;13.30;99.90
26537;DHT22;14204;51.262;5.488;2022-11-13T15:08:45;13.30;99.90
26537;DHT22;14204;51.262;5.488;2022-11-13T15:11:17;13.30;99.90
26537;DHT22;14204;51.262;5.488;2022-11-13T15:13:44;13.20;99.90
26537;DHT22;14204;51.262;5.488;2022-11-13T15:16:13;13.10;99.90
26537;DHT22;14204;51.262;5.488;2022-11-13T15:18:48;13.10;99.90
26537;DHT22;14204;51.262;5.488;2022-11-13T15:21:15;13.00;99.90
26537;DHT22;14204;51.262;5.488;2022-11-13T15:23:40;12.90;99.90
26537;DHT22;14204;51.262;5.488;2022-11-13T15:26:09;12.90;99.90
26537;DHT22;14204;51.262;5.488;2022-11-13T15:28:35;12.90;99.90
26537;DHT22;14204;51.262;5.488;2022-11-13T15:31:01;12.90;99.90
26537;DHT22;14204;51.262;5.488;2022-11-13T15:33:27;12.90;99.90
26537;DHT22;14204;51.262;5.488;2022-11-13T15:35:52;12.80;99.90
26537;DHT22;14204;51.262;5.488;2022-11-13T15:38:18;12.80;99.90
26537;DHT22;14204;51.262;5.488;2022-11-13T15:40:44;12.80;99.90
26537;DHT22;14204;51.262;5.488;2022-11-13T15:43:17;12.70;99.90
26537;DHT22;14204;51.262;5.488;2022-11-13T15:45:43;12.60;99.90
26537;DHT22;14204;51.262;5.488;2022-11-13T15:48:09;12.60;99.90
26537;DHT22;14204;51.262;5.488;2022-11-13T15:50:35;12.60;99.90
26537;DHT22;14204;51.262;5.488;2022-11-13T15:53:01;12.60;99.90
26537;DHT22;14204;51.262;5.488;2022-11-13T15:55:29;12.50;99.90
26537;DHT22;14204;51.262;5.488;2022-11-13T15:57:57;12.60;99.90
26537;DHT22;14204;51.262;5.488;2022-11-13T16:00:25;12.50;99.90
26537;DHT22;14204;51.262;5.488;2022-11-13T16:02:55;12.50;99.90
26537;DHT22;14204;51.262;5.488;2022-11-13T16:05:22;12.50;99.90
26537;DHT22;14204;51.262;5.488;2022-11-13T16:07:52;12.40;99.90
26537;DHT22;14204;51.262;5.488;2022-11-13T16:10:19;12.30;99.90
26537;DHT22;14204;51.262;5.488;2022-11-13T16:12:45;12.20;99.90
26537;DHT22;14204;51.262;5.488;2022-11-13T16:15:15;12.20;99.90
26537;DHT22;14204;51.262;5.488;2022-11-13T16:17:46;12.10;99.90
26537;DHT22;14204;51.262;5.488;2022-11-13T16:20:14;12.10;99.90
26537;DHT22;14204;51.262;5.488;2022-11-13T16:22:41;12.00;99.90
26537;DHT22;14204;51.262;5.488;2022-11-13T16:25:12;12.00;99.90
26537;DHT22;14204;51.262;5.488;2022-11-13T16:27:38;11.90;99.90
26537;DHT22;14204;51.262;5.488;2022-11-13T16:30:04;11.80;99.90
26537;DHT22;14204;51.262;5.488;2022-11-13T16:32:30;11.80;99.90
26537;DHT22;14204;51.262;5.488;2022-11-13T16:34:56;11.80;99.90
26537;DHT22;14204;51.262;5.488;2022-11-13T16:37:23;11.70;99.90
26537;DHT22;14204;51.262;5.488;2022-11-13T16:39:49;11.70;99.90
26537;DHT22;14204;51.262;5.488;2022-11-13T16:42:15;11.70;99.90
26537;DHT22;14204;51.262;5.488;2022-11-13T16:44:42;11.60;99.90
26537;DHT22;14204;51.262;5.488;2022-11-13T16:47:23;11.60;99.90
26537;DHT22;14204;51.262;5.488;2022-11-13T16:49:49;11.50;99.90
26537;DHT22;14204;51.262;5.488;2022-11-13T16:52:15;11.60;99.90
26537;DHT22;14204;51.262;5.488;2022-11-13T16:54:41;11.50;99.90
26537;DHT22;14204;51.262;5.488;2022-11-13T16:57:13;11.50;99.90
26537;DHT22;14204;51.262;5.488;2022-11-13T16:59:40;11.40;99.90
26537;DHT22;14204;51.262;5.488;2022-11-13T17:02:14;11.40;99.90
26537;DHT22;14204;51.262;5.488;2022-11-13T17:04:40;11.40;99.90
26537;DHT22;14204;51.262;5.488;2022-11-13T17:07:10;11.30;99.90
26537;DHT22;14204;51.262;5.488;2022-11-13T17:09:39;11.30;99.90
26537;DHT22;14204;51.262;5.488;2022-11-13T17:12:04;11.30;99.90
26537;DHT22;14204;51.262;5.488;2022-11-13T17:14:30;11.20;99.90
26537;DHT22;14204;51.262;5.488;2022-11-13T17:16:56;11.20;99.90
26537;DHT22;14204;51.262;5.488;2022-11-13T17:19:21;11.20;99.90
26537;DHT22;14204;51.262;5.488;2022-11-13T17:21:47;11.20;99.90